Terminal Aerodrome Forecast
Issued by NWS

Home | Current Version | Previous Version | Text Only | Print | Product List | Glossary On
Versions: 1 2 3 4 5 6 7 8 9 10 11 12 13 14 15 16 17
000
FTUS46 KMTR 251700
TAFSNS
TAF
KSNS 251720Z 2518/2618 23006KT P6SM OVC015
     FM251900 28012KT P6SM BKN020
     FM252300 28013G19KT P6SM FEW018 BKN024
     FM260500 26008KT P6SM OVC015
     FM261000 26004KT P6SM OVC008=

USA.gov is the U.S. government's official web portal to all federal, state and local government web resources and services.